Time;durP1;ratioP1;P1;durP2;ratioP2;P2;SDS_P1;SDS_P2;PMS_P1;PMS_P2;Temp;Humidity;BMP_temperature;BMP_pressure;BME280_temperature;BME280_humidity;BME280_pressure;Samples;Min_cycle;Max_cycle;Signal;HPM_P1;HPM_P2
2021/07/06 09:42:15;;;;;;;1.70;1.60;;;26.10;97.80;;;;;;4292306;27;20496;-93
2021/07/06 09:44:43;;;;;;;1.67;1.57;;;25.70;98.50;;;;;;4894541;29;20504;-90
2021/07/06 09:47:17;;;;;;;2.50;1.93;;;25.50;98.90;;;;;;4886641;29;20465;-91
2021/07/06 09:49:56;;;;;;;1.97;1.77;;;25.30;98.70;;;;;;4877504;29;20472;-89
2021/07/06 09:52:23;;;;;;;2.10;2.00;;;25.00;99.40;;;;;;4871080;29;20558;-89
2021/07/06 09:54:56;;;;;;;2.50;2.30;;;24.80;99.90;;;;;;4892579;29;20468;-87
2021/07/06 09:57:29;;;;;;;4.40;2.20;;;24.30;99.90;;;;;;4875647;29;20502;-90
2021/07/06 10:00:01;;;;;;;2.23;1.93;;;23.60;99.90;;;;;;4897056;29;21558;-89
2021/07/06 10:02:29;;;;;;;1.90;1.80;;;23.20;99.90;;;;;;4898867;29;20488;-91
2021/07/06 10:05:00;;;;;;;3.47;2.17;;;23.10;99.90;;;;;;4878409;29;20456;-91
2021/07/06 10:07:40;;;;;;;2.20;1.90;;;23.20;99.90;;;;;;4882609;29;20951;-92
2021/07/06 10:10:15;;;;;;;2.23;2.00;;;23.70;99.90;;;;;;4889895;29;20454;-91
2021/07/06 10:12:48;;;;;;;2.27;2.10;;;23.50;99.90;;;;;;4881480;29;20906;-90
2021/07/06 10:15:19;;;;;;;3.00;1.73;;;23.40;99.90;;;;;;4901595;29;20477;-89
2021/07/06 10:17:45;;;;;;;2.63;1.70;;;23.60;99.90;;;;;;4884428;29;21079;-89
2021/07/06 10:20:24;;;;;;;1.77;1.67;;;24.00;99.90;;;;;;4886059;29;20492;-90
2021/07/06 10:22:52;;;;;;;2.03;1.93;;;24.10;99.90;;;;;;4882065;29;20934;-88
2021/07/06 10:25:23;;;;;;;3.07;1.30;;;24.20;99.90;;;;;;4883659;29;20448;-89
2021/07/06 10:27:55;;;;;;;1.27;1.10;;;24.60;99.90;;;;;;4895687;29;20560;-89
2021/07/06 10:30:24;;;;;;;1.00;0.90;;;25.10;99.90;;;;;;4884285;29;20974;-89
2021/07/06 10:32:52;;;;;;;4.60;0.87;;;25.70;99.90;;;;;;4882872;29;20483;-88
2021/07/06 10:35:39;;;;;;;1.53;1.37;;;25.20;99.90;;;;;;4881457;29;20463;-87
2021/07/06 10:38:31;;;;;;;1.00;0.83;;;24.70;99.90;;;;;;4901420;29;20475;-87
2021/07/06 10:41:13;;;;;;;1.00;0.90;;;24.10;99.90;;;;;;4904840;29;20479;-85
2021/07/06 10:43:44;;;;;;;0.87;0.87;;;23.30;99.90;;;;;;4900018;29;20495;-85
2021/07/06 10:46:30;;;;;;;0.70;0.70;;;23.30;99.90;;;;;;4903474;29;21009;-86
2021/07/06 10:49:14;;;;;;;0.60;0.57;;;23.00;99.90;;;;;;4896452;29;20459;-86
2021/07/06 10:51:40;;;;;;;1.00;0.77;;;22.90;99.90;;;;;;4882702;29;20464;-89
2021/07/06 10:54:07;;;;;;;0.77;0.70;;;23.00;99.90;;;;;;4883066;29;20461;-88
2021/07/06 10:56:43;;;;;;;1.10;0.57;;;22.70;99.90;;;;;;4885806;29;20400;-86
2021/07/06 10:59:41;;;;;;;1.33;0.70;;;22.70;99.90;;;;;;4881002;29;20486;-86
2021/07/06 11:02:13;;;;;;;1.07;0.70;;;22.80;99.90;;;;;;4898662;29;20520;-87
2021/07/06 11:07:07;;;;;;;1.80;0.70;;;23.40;99.90;;;;;;4900549;29;20483;-88
2021/07/06 11:09:35;;;;;;;0.87;0.70;;;23.40;99.90;;;;;;4883951;29;20404;-89
2021/07/06 11:12:22;;;;;;;2.30;0.70;;;23.50;99.90;;;;;;4885554;29;20449;-90
2021/07/06 11:14:58;;;;;;;1.20;0.70;;;23.50;99.90;;;;;;4904128;29;20458;-88
2021/07/06 11:17:44;;;;;;;0.40;0.40;;;23.50;99.90;;;;;;4897078;29;20471;-88
2021/07/06 11:20:38;;;;;;;0.50;0.50;;;24.00;99.90;;;;;;4898930;29;20550;-89
2021/07/06 11:23:12;;;;;;;0.83;0.80;;;24.50;99.90;;;;;;4900819;29;21018;-88
2021/07/06 11:25:41;;;;;;;0.50;0.50;;;24.30;99.90;;;;;;4879232;29;20492;-89
2021/07/06 11:28:24;;;;;;;1.10;0.70;;;24.00;99.90;;;;;;4902727;29;20455;-89
2021/07/06 11:36:35;;;;;;;0.90;0.67;;;24.20;99.90;;;;;;4897315;29;20494;-86
2021/07/06 11:41:42;;;;;;;1.60;0.80;;;23.80;99.90;;;;;;4902870;29;20977;-88
2021/07/06 11:44:49;;;;;;;3.03;0.70;;;23.60;99.90;;;;;;4895120;29;20472;-89
